Time;durP1;ratioP1;P1;durP2;ratioP2;P2;SDS_P1;SDS_P2;PMS_P1;PMS_P2;Temp;Humidity;BMP_temperature;BMP_pressure;BME280_temperature;BME280_humidity;BME280_pressure;Samples;Min_cycle;Max_cycle;Signal;HPM_P1;HPM_P2
2024/01/04 00:00:43;;;;;;;18.47;11.60;;;0.60;99.90;;;;;;5112287;28;20230;-60
2024/01/04 00:03:13;;;;;;;16.20;10.70;;;0.50;99.90;;;;;;5111525;28;20260;-61
2024/01/04 00:05:42;;;;;;;16.73;11.70;;;0.70;99.90;;;;;;5111273;28;20674;-62
2024/01/04 00:08:10;;;;;;;18.13;12.00;;;0.80;99.90;;;;;;5111297;28;20204;-63
2024/01/04 00:10:38;;;;;;;18.37;11.73;;;0.90;99.90;;;;;;5111285;28;20193;-63
2024/01/04 00:13:07;;;;;;;16.43;10.53;;;0.80;99.90;;;;;;5111620;28;20197;-60
2024/01/04 00:15:35;;;;;;;16.17;10.57;;;0.70;99.90;;;;;;5111671;28;20207;-64
2024/01/04 00:18:03;;;;;;;10.70;8.70;;;0.90;99.90;;;;;;5111030;28;20197;-63
2024/01/04 00:20:33;;;;;;;16.67;12.17;;;0.70;99.90;;;;;;5110930;28;20308;-60
2024/01/04 00:23:02;;;;;;;18.03;12.50;;;0.70;99.90;;;;;;5111216;28;20202;-64
2024/01/04 00:25:30;;;;;;;18.70;12.50;;;0.80;99.90;;;;;;5111391;28;20192;-65
2024/01/04 00:27:58;;;;;;;15.17;11.17;;;0.70;99.90;;;;;;5111083;28;20221;-64
2024/01/04 00:30:27;;;;;;;18.17;12.07;;;0.70;99.90;;;;;;5111138;28;20198;-63
2024/01/04 00:32:55;;;;;;;16.60;11.40;;;0.70;99.90;;;;;;5110535;28;20861;-63
2024/01/04 00:35:24;;;;;;;14.83;11.43;;;0.70;99.90;;;;;;5091659;28;20306;-63
2024/01/04 00:37:56;;;;;;;16.67;10.93;;;0.80;99.90;;;;;;5110154;28;20189;-63
2024/01/04 00:40:24;;;;;;;18.37;10.77;;;0.80;99.90;;;;;;5109238;28;20237;-65
2024/01/04 00:42:53;;;;;;;14.70;10.60;;;0.90;99.90;;;;;;5110366;28;20690;-63
2024/01/04 00:45:21;;;;;;;16.63;11.37;;;0.80;99.90;;;;;;5111012;28;20193;-64
2024/01/04 00:47:49;;;;;;;16.47;11.37;;;0.80;99.90;;;;;;5111519;28;20697;-63
2024/01/04 00:50:18;;;;;;;14.20;10.47;;;0.80;99.90;;;;;;5111078;28;20200;-62
2024/01/04 00:52:46;;;;;;;16.73;11.37;;;0.90;99.90;;;;;;5110854;28;20223;-63
2024/01/04 00:55:22;;;;;;;17.90;12.57;;;0.80;99.90;;;;;;5110680;28;20200;-63
2024/01/04 00:57:50;;;;;;;14.63;10.63;;;0.70;99.90;;;;;;5110818;28;20201;-63
2024/01/04 01:00:19;;;;;;;19.73;12.00;;;0.70;99.90;;;;;;5092215;28;20533;-62
2024/01/04 01:02:47;;;;;;;16.97;11.13;;;0.80;99.90;;;;;;5109811;28;20197;-62
2024/01/04 01:05:15;;;;;;;15.53;11.47;;;0.90;99.90;;;;;;5110273;28;20193;-62
2024/01/04 01:07:43;;;;;;;15.97;11.70;;;0.80;99.90;;;;;;5110601;28;20244;-63
2024/01/04 01:10:12;;;;;;;17.27;10.93;;;0.70;99.90;;;;;;5110228;28;20686;-64
2024/01/04 01:12:42;;;;;;;14.63;10.63;;;0.60;99.90;;;;;;5091631;28;20236;-61
2024/01/04 01:15:10;;;;;;;16.40;11.40;;;0.40;99.90;;;;;;5027017;28;20207;-62
2024/01/04 01:17:39;;;;;;;14.90;10.97;;;0.60;99.90;;;;;;5026946;28;20240;-63
2024/01/04 01:20:08;;;;;;;15.87;10.67;;;0.60;99.90;;;;;;5026722;28;20515;-61
2024/01/04 01:22:37;;;;;;;13.90;9.93;;;0.60;99.90;;;;;;5027247;28;20215;-63
2024/01/04 01:25:06;;;;;;;12.10;8.97;;;0.20;99.90;;;;;;5027113;28;20625;-64
2024/01/04 01:27:34;;;;;;;19.20;11.47;;;0.20;99.90;;;;;;5027116;28;20207;-63
2024/01/04 01:30:04;;;;;;;16.47;12.20;;;0.10;99.90;;;;;;5027113;28;20294;-62
2024/01/04 01:32:33;;;;;;;17.93;13.07;;;0.30;99.90;;;;;;5038356;28;20203;-63
2024/01/04 01:35:02;;;;;;;15.30;11.10;;;0.40;99.90;;;;;;5109778;28;20784;-61
2024/01/04 01:37:30;;;;;;;15.40;11.80;;;0.50;99.90;;;;;;5109915;28;20192;-63
2024/01/04 01:39:58;;;;;;;12.10;9.00;;;0.70;99.90;;;;;;5109670;28;21041;-63
2024/01/04 01:42:27;;;;;;;16.23;11.40;;;0.20;99.90;;;;;;5109806;28;20228;-64
2024/01/04 01:44:55;;;;;;;16.30;11.30;;;0.40;99.90;;;;;;5109816;28;20250;-64
2024/01/04 01:47:25;;;;;;;19.53;14.13;;;0.50;99.90;;;;;;5091798;28;20196;-63
2024/01/04 01:49:54;;;;;;;15.77;11.90;;;0.70;99.90;;;;;;5109906;28;20687;-63
2024/01/04 01:52:23;;;;;;;16.43;10.50;;;0.70;99.90;;;;;;5110414;28;20193;-64
2024/01/04 01:54:52;;;;;;;22.50;13.07;;;0.60;99.90;;;;;;5110150;28;20194;-62
2024/01/04 01:57:21;;;;;;;18.93;11.47;;;0.60;99.90;;;;;;5091488;28;20663;-63
2024/01/04 01:59:49;;;;;;;14.33;10.67;;;0.40;99.90;;;;;;5091434;28;20248;-62
2024/01/04 02:02:17;;;;;;;18.47;13.23;;;0.60;99.90;;;;;;5091484;28;20320;-64
2024/01/04 02:04:48;;;;;;;15.27;11.47;;;0.80;99.90;;;;;;5109395;28;20552;-61
2024/01/04 02:07:17;;;;;;;16.60;11.23;;;0.70;99.90;;;;;;5109807;28;20205;-63
2024/01/04 02:09:45;;;;;;;15.90;11.00;;;0.70;99.90;;;;;;5109600;28;20194;-63
2024/01/04 02:12:15;;;;;;;19.17;11.13;;;0.80;99.90;;;;;;5090130;28;20610;-63
2024/01/04 02:14:44;;;;;;;17.50;11.13;;;0.70;99.90;;;;;;5109231;28;20668;-62
2024/01/04 02:17:13;;;;;;;15.93;11.27;;;0.60;99.90;;;;;;5109354;28;20231;-63
2024/01/04 02:19:41;;;;;;;13.20;9.57;;;0.70;99.90;;;;;;5090798;28;20236;-63
2024/01/04 02:22:11;;;;;;;16.87;10.70;;;0.70;99.90;;;;;;5090752;28;20273;-62
2024/01/04 02:24:41;;;;;;;16.23;11.43;;;0.70;99.90;;;;;;5090664;28;20593;-62
2024/01/04 02:27:09;;;;;;;14.67;10.03;;;0.50;99.90;;;;;;5109111;28;20196;-62
2024/01/04 02:29:38;;;;;;;14.83;10.70;;;0.60;99.90;;;;;;5090600;28;20201;-62
2024/01/04 02:32:07;;;;;;;12.13;9.00;;;0.60;99.90;;;;;;5090844;28;20283;-61
2024/01/04 02:34:35;;;;;;;14.80;10.10;;;0.40;99.90;;;;;;5089799;28;20603;-64
2024/01/04 02:37:04;;;;;;;15.70;10.33;;;0.50;99.90;;;;;;5109365;28;20188;-64
2024/01/04 02:39:32;;;;;;;16.53;10.90;;;0.50;99.90;;;;;;5108703;28;20224;-63
2024/01/04 02:42:02;;;;;;;14.00;9.10;;;0.30;99.90;;;;;;5109182;28;20215;-65
2024/01/04 02:44:30;;;;;;;13.70;9.87;;;0.40;99.90;;;;;;5109193;28;20188;-62
2024/01/04 02:46:58;;;;;;;14.00;9.67;;;0.40;99.90;;;;;;5109073;28;20196;-63
2024/01/04 02:49:27;;;;;;;14.57;9.93;;;0.50;99.90;;;;;;5108941;28;20689;-64
2024/01/04 02:51:55;;;;;;;12.70;9.00;;;0.60;99.90;;;;;;5109173;28;20196;-62
2024/01/04 02:54:23;;;;;;;13.60;9.67;;;0.60;99.90;;;;;;5090740;28;20416;-63
2024/01/04 02:56:52;;;;;;;14.43;9.77;;;0.60;99.90;;;;;;5090591;28;20564;-63
2024/01/04 02:59:21;;;;;;;13.03;9.33;;;0.50;99.90;;;;;;5108990;28;20189;-62
2024/01/04 03:01:50;;;;;;;14.20;10.00;;;0.60;99.90;;;;;;5108723;28;20203;-63
2024/01/04 03:04:18;;;;;;;12.93;9.37;;;0.70;99.90;;;;;;5108786;28;20201;-64
2024/01/04 03:06:46;;;;;;;15.20;9.60;;;0.80;99.90;;;;;;5109056;28;20188;-62
2024/01/04 03:09:15;;;;;;;13.80;9.13;;;0.80;99.90;;;;;;5108478;28;20207;-63
2024/01/04 03:11:43;;;;;;;13.03;9.03;;;0.70;99.90;;;;;;5108681;28;20204;-62
2024/01/04 03:14:11;;;;;;;15.73;9.67;;;0.50;99.90;;;;;;5108732;28;20196;-61
2024/01/04 03:16:41;;;;;;;13.77;9.63;;;0.50;99.90;;;;;;5108809;28;20197;-64
2024/01/04 03:19:09;;;;;;;12.00;9.50;;;0.60;99.90;;;;;;5108473;28;20684;-61
2024/01/04 03:21:38;;;;;;;12.90;9.30;;;0.70;99.90;;;;;;5108623;28;20705;-63
2024/01/04 03:24:06;;;;;;;11.50;9.03;;;0.60;99.90;;;;;;5108710;28;20254;-61
2024/01/04 03:26:35;;;;;;;13.30;8.87;;;0.60;99.90;;;;;;5110618;28;20213;-62
2024/01/04 03:29:03;;;;;;;13.10;9.60;;;0.50;99.90;;;;;;5112599;28;20228;-62
2024/01/04 03:31:31;;;;;;;14.20;9.47;;;0.40;99.90;;;;;;5112392;28;20196;-59
2024/01/04 03:34:01;;;;;;;12.50;8.57;;;0.30;99.90;;;;;;5112178;28;20201;-60
2024/01/04 03:36:29;;;;;;;13.47;9.03;;;0.60;99.90;;;;;;5112265;28;20192;-63
2024/01/04 03:38:58;;;;;;;13.07;9.57;;;0.60;99.90;;;;;;5111975;28;20697;-62
2024/01/04 03:41:27;;;;;;;11.33;8.83;;;0.50;99.90;;;;;;5112063;28;20277;-62
2024/01/04 03:43:55;;;;;;;13.33;9.50;;;0.60;99.90;;;;;;5112004;28;20205;-63
2024/01/04 03:46:23;;;;;;;12.57;9.27;;;0.80;99.90;;;;;;5112091;28;20208;-62
2024/01/04 03:48:52;;;;;;;11.23;8.80;;;0.70;99.90;;;;;;5111897;28;20254;-64
2024/01/04 03:51:22;;;;;;;15.53;9.43;;;0.70;99.90;;;;;;5111964;28;20300;-63
2024/01/04 03:53:50;;;;;;;15.33;9.57;;;0.70;99.90;;;;;;5111803;28;20193;-62
2024/01/04 03:56:18;;;;;;;12.90;8.53;;;0.40;99.90;;;;;;5111905;28;20679;-62
2024/01/04 03:58:47;;;;;;;12.07;8.67;;;0.40;99.90;;;;;;5111855;28;20197;-62
2024/01/04 04:01:15;;;;;;;11.60;9.00;;;0.40;99.90;;;;;;5111768;28;20191;-62
2024/01/04 04:03:43;;;;;;;15.47;10.37;;;0.30;99.90;;;;;;5111535;28;20221;-64
2024/01/04 04:06:12;;;;;;;12.40;9.80;;;0.40;99.90;;;;;;5111405;28;20727;-61
2024/01/04 04:08:41;;;;;;;13.17;9.07;;;0.20;99.90;;;;;;5111395;28;20187;-63
2024/01/04 04:11:16;;;;;;;13.93;8.97;;;0.30;99.90;;;;;;5093041;28;20209;-61
2024/01/04 04:13:45;;;;;;;12.47;9.93;;;0.40;99.90;;;;;;5111599;28;20278;-62
2024/01/04 04:16:13;;;;;;;13.60;9.47;;;0.30;99.90;;;;;;5111297;28;20211;-63
2024/01/04 04:18:42;;;;;;;15.63;9.77;;;0.40;99.90;;;;;;5111584;28;20197;-62
2024/01/04 04:21:19;;;;;;;13.37;9.40;;;0.40;99.90;;;;;;5111344;28;20290;-60
2024/01/04 04:23:50;;;;;;;13.43;8.77;;;0.40;99.90;;;;;;5111343;28;20239;-62
2024/01/04 04:26:19;;;;;;;12.07;8.20;;;0.50;99.90;;;;;;5111275;28;20204;-61
2024/01/04 04:28:47;;;;;;;14.37;9.13;;;0.40;99.90;;;;;;5111216;28;20211;-62
2024/01/04 04:31:16;;;;;;;12.57;8.87;;;0.30;99.90;;;;;;5111433;28;20199;-61
2024/01/04 04:33:46;;;;;;;13.80;8.93;;;0.30;99.90;;;;;;5111156;28;20184;-63
2024/01/04 04:36:15;;;;;;;11.07;8.80;;;0.30;99.90;;;;;;5111101;28;20227;-62
2024/01/04 04:38:43;;;;;;;14.00;10.40;;;0.20;99.90;;;;;;5110947;28;20200;-63
2024/01/04 04:41:13;;;;;;;14.53;9.10;;;0.40;99.90;;;;;;5111186;28;20193;-64
2024/01/04 04:43:41;;;;;;;13.67;9.73;;;0.20;99.90;;;;;;5110845;28;20295;-65
2024/01/04 04:46:11;;;;;;;14.43;9.70;;;0.30;99.90;;;;;;5111157;28;20215;-65
2024/01/04 04:48:39;;;;;;;11.37;8.67;;;0.40;99.90;;;;;;5110949;28;20205;-63
2024/01/04 04:51:08;;;;;;;13.17;9.47;;;0.50;99.90;;;;;;5111139;28;20219;-62
2024/01/04 04:53:35;;;;;;;15.87;8.80;;;0.40;99.90;;;;;;5111382;28;20196;-64
2024/01/04 04:56:04;;;;;;;9.93;7.97;;;0.50;99.90;;;;;;5111198;28;20191;-62
2024/01/04 04:58:34;;;;;;;13.20;9.10;;;0.50;99.90;;;;;;5111337;28;20197;-61
2024/01/04 05:01:02;;;;;;;13.47;9.53;;;0.40;99.90;;;;;;5111125;28;20562;-63
2024/01/04 05:03:31;;;;;;;11.33;8.67;;;0.50;99.90;;;;;;5110975;28;20235;-62
2024/01/04 05:05:59;;;;;;;12.33;8.37;;;0.50;99.90;;;;;;5110509;28;20634;-61
2024/01/04 05:08:27;;;;;;;10.33;8.23;;;0.40;99.90;;;;;;5110739;28;20598;-63
2024/01/04 05:10:56;;;;;;;11.47;7.77;;;0.40;99.90;;;;;;5109317;27;20733;-62
2024/01/04 05:13:24;;;;;;;11.67;8.30;;;0.30;99.90;;;;;;5090173;28;20196;-63
2024/01/04 05:15:54;;;;;;;13.57;8.80;;;0.00;99.90;;;;;;5090238;28;20194;-61
2024/01/04 05:18:22;;;;;;;11.17;8.60;;;0.20;99.90;;;;;;5089983;28;20193;-62
2024/01/04 05:20:51;;;;;;;13.27;8.57;;;0.50;99.90;;;;;;5089786;28;20780;-61
2024/01/04 05:23:19;;;;;;;13.23;8.87;;;0.30;99.90;;;;;;5089924;28;20213;-61
2024/01/04 05:25:47;;;;;;;11.27;8.73;;;0.30;99.90;;;;;;5090196;28;20192;-61
2024/01/04 05:28:15;;;;;;;11.63;8.77;;;0.20;99.90;;;;;;5089830;28;20755;-62
2024/01/04 05:30:44;;;;;;;11.70;8.87;;;0.20;99.90;;;;;;5104178;28;20240;-61
2024/01/04 05:33:13;;;;;;;9.27;7.73;;;0.20;99.90;;;;;;5110023;28;20193;-62
2024/01/04 05:35:42;;;;;;;11.83;8.60;;;0.10;99.90;;;;;;5091498;28;20204;-62
2024/01/04 05:38:10;;;;;;;13.10;9.70;;;0.10;99.90;;;;;;5109885;28;20196;-62
2024/01/04 05:40:39;;;;;;;14.20;9.30;;;0.20;99.90;;;;;;5109407;28;20228;-61
2024/01/04 05:43:07;;;;;;;13.50;9.03;;;0.30;99.90;;;;;;5109890;28;20215;-61
2024/01/04 05:45:35;;;;;;;11.43;8.20;;;0.30;99.90;;;;;;5109911;28;20197;-63
2024/01/04 05:48:04;;;;;;;11.20;8.60;;;0.20;99.90;;;;;;5109643;28;20189;-63
2024/01/04 05:50:34;;;;;;;13.07;9.07;;;-0.10;99.90;;;;;;5108931;28;20287;-64
2024/01/04 05:53:02;;;;;;;11.83;9.17;;;0.00;99.90;;;;;;5109430;28;20569;-64
2024/01/04 05:55:31;;;;;;;15.67;9.43;;;-0.10;99.90;;;;;;5109550;28;20195;-63
2024/01/04 05:57:59;;;;;;;14.30;9.63;;;-0.10;99.90;;;;;;5109494;28;20253;-63
2024/01/04 06:00:27;;;;;;;12.20;9.10;;;0.10;99.90;;;;;;5109654;28;20565;-64
2024/01/04 06:02:56;;;;;;;11.13;8.93;;;0.20;99.90;;;;;;5109471;28;20629;-63
2024/01/04 06:05:26;;;;;;;11.03;8.70;;;0.30;99.90;;;;;;5109269;28;20286;-62
2024/01/04 06:07:56;;;;;;;15.23;9.50;;;0.30;99.90;;;;;;5109670;28;20205;-62
2024/01/04 06:10:24;;;;;;;18.20;9.43;;;0.30;99.90;;;;;;5109603;28;20189;-63
2024/01/04 06:12:52;;;;;;;11.30;8.23;;;0.20;99.90;;;;;;5109458;28;20269;-64
2024/01/04 06:15:20;;;;;;;14.33;10.03;;;0.30;99.90;;;;;;5109237;28;20201;-63
2024/01/04 06:17:49;;;;;;;15.47;8.83;;;0.30;99.90;;;;;;5109112;28;20199;-62
2024/01/04 06:20:17;;;;;;;15.33;9.20;;;0.20;99.90;;;;;;5108832;28;20257;-64
2024/01/04 06:22:45;;;;;;;15.20;9.60;;;0.30;99.90;;;;;;5108842;28;20197;-64
2024/01/04 06:25:16;;;;;;;10.10;8.90;;;0.40;99.90;;;;;;5108943;28;20194;-62
2024/01/04 06:27:44;;;;;;;12.10;9.43;;;0.40;99.90;;;;;;5109166;28;20192;-62
2024/01/04 06:30:12;;;;;;;27.73;14.03;;;0.40;99.90;;;;;;5108912;28;20291;-64
2024/01/04 06:32:41;;;;;;;13.10;11.17;;;0.40;99.90;;;;;;5109019;28;20737;-61
2024/01/04 06:35:09;;;;;;;14.83;9.07;;;0.50;99.90;;;;;;5124615;27;20208;-60
2024/01/04 06:37:38;;;;;;;10.43;8.10;;;0.30;99.90;;;;;;5108911;28;20200;-62
2024/01/04 06:40:08;;;;;;;11.93;8.83;;;0.40;99.90;;;;;;5108908;28;20224;-61
2024/01/04 06:42:38;;;;;;;14.27;9.23;;;0.40;99.90;;;;;;5109094;28;20226;-62
2024/01/04 06:45:07;;;;;;;14.13;10.07;;;0.40;99.90;;;;;;5109148;28;20223;-62
2024/01/04 06:47:35;;;;;;;21.93;14.80;;;0.40;99.90;;;;;;5109492;28;20242;-61
2024/01/04 06:50:04;;;;;;;11.83;9.03;;;0.60;99.90;;;;;;5109084;28;20201;-61
2024/01/04 06:52:38;;;;;;;12.10;10.27;;;0.50;99.90;;;;;;5109272;28;20194;-62
2024/01/04 06:55:07;;;;;;;13.17;10.53;;;0.40;99.90;;;;;;5109235;28;20628;-64
2024/01/04 06:57:35;;;;;;;13.13;10.57;;;0.50;99.90;;;;;;5109145;28;20280;-64
2024/01/04 07:00:07;;;;;;;15.03;11.17;;;0.30;99.90;;;;;;5108983;28;20196;-62
2024/01/04 07:02:36;;;;;;;13.57;9.60;;;0.30;99.90;;;;;;5112921;28;20271;-63
2024/01/04 07:05:05;;;;;;;12.37;9.20;;;0.40;99.90;;;;;;5112873;28;20759;-62
2024/01/04 07:07:36;;;;;;;16.83;12.37;;;0.50;99.90;;;;;;5104511;28;20199;-62
2024/01/04 07:10:05;;;;;;;11.37;9.10;;;0.50;99.90;;;;;;5092609;28;20678;-64
2024/01/04 07:12:33;;;;;;;8.67;7.43;;;0.40;99.90;;;;;;5092521;28;20242;-62
2024/01/04 07:15:02;;;;;;;15.67;10.07;;;0.20;99.90;;;;;;5092606;28;20204;-61
2024/01/04 07:17:31;;;;;;;14.93;10.93;;;0.20;99.90;;;;;;5092562;28;20204;-63
2024/01/04 07:20:00;;;;;;;10.47;9.13;;;0.40;99.90;;;;;;5092454;28;20287;-63
2024/01/04 07:22:28;;;;;;;16.50;14.37;;;0.50;99.90;;;;;;5092398;28;20193;-63
2024/01/04 07:24:56;;;;;;;11.77;9.63;;;0.50;99.90;;;;;;5092426;28;20710;-63
2024/01/04 07:27:27;;;;;;;17.67;12.93;;;0.30;99.90;;;;;;5092285;28;20203;-62
2024/01/04 07:29:57;;;;;;;18.23;12.70;;;0.20;99.90;;;;;;5092454;28;20279;-63
2024/01/04 07:32:25;;;;;;;15.57;11.33;;;0.20;99.90;;;;;;5092297;28;20254;-63
2024/01/04 07:34:55;;;;;;;27.80;17.87;;;0.10;99.90;;;;;;5092218;28;20200;-64
2024/01/04 07:37:30;;;;;;;34.43;20.97;;;0.20;99.90;;;;;;5092079;28;20675;-64
2024/01/04 07:39:59;;;;;;;15.67;11.53;;;0.50;99.90;;;;;;5091624;28;20729;-62
2024/01/04 07:42:27;;;;;;;31.87;19.90;;;0.40;99.90;;;;;;5092035;28;20256;-62
2024/01/04 07:44:55;;;;;;;17.07;12.80;;;0.60;99.90;;;;;;5091865;28;20225;-64
2024/01/04 07:47:29;;;;;;;19.37;14.07;;;0.60;99.90;;;;;;5092010;28;20207;-61
2024/01/04 07:49:58;;;;;;;33.90;21.37;;;0.70;99.90;;;;;;5091700;28;20342;-62
2024/01/04 07:52:27;;;;;;;18.30;11.90;;;0.70;99.90;;;;;;5091518;28;20197;-63
2024/01/04 07:54:55;;;;;;;16.47;11.63;;;0.70;99.90;;;;;;5091753;28;20217;-63
2024/01/04 07:57:23;;;;;;;16.03;10.43;;;0.80;99.90;;;;;;5091676;28;20198;-62
2024/01/04 07:59:53;;;;;;;15.33;10.70;;;0.80;99.90;;;;;;5091457;28;20196;-63
2024/01/04 08:02:21;;;;;;;12.93;9.33;;;0.80;99.90;;;;;;5099660;27;20573;-61
2024/01/04 08:04:50;;;;;;;14.03;9.90;;;0.60;99.90;;;;;;5123672;27;20256;-63
2024/01/04 08:07:19;;;;;;;16.53;11.07;;;0.30;99.90;;;;;;5118236;27;20201;-61
2024/01/04 08:09:48;;;;;;;16.87;10.83;;;0.50;99.90;;;;;;5093768;28;20779;-61
2024/01/04 08:12:16;;;;;;;13.97;9.83;;;0.20;99.90;;;;;;5111672;28;20215;-62
2024/01/04 08:14:44;;;;;;;18.63;12.77;;;0.10;99.90;;;;;;5112205;28;20224;-62
2024/01/04 08:17:12;;;;;;;15.90;10.30;;;0.30;99.90;;;;;;5111569;28;20562;-60
2024/01/04 08:19:41;;;;;;;14.00;9.90;;;0.50;99.90;;;;;;5112085;28;20235;-61
2024/01/04 08:22:09;;;;;;;12.33;9.20;;;0.30;99.90;;;;;;5111657;28;20262;-61
2024/01/04 08:24:42;;;;;;;15.07;9.90;;;0.30;99.90;;;;;;5112002;28;20219;-61
2024/01/04 08:27:10;;;;;;;15.40;11.40;;;0.30;99.90;;;;;;5112103;28;20196;-60
2024/01/04 08:29:38;;;;;;;13.90;10.53;;;0.50;99.90;;;;;;5111999;28;20281;-61
2024/01/04 08:32:07;;;;;;;15.83;11.07;;;0.60;99.90;;;;;;5111331;28;20205;-61
2024/01/04 08:34:35;;;;;;;15.37;10.60;;;0.90;99.90;;;;;;5111894;28;20188;-63
2024/01/04 08:37:04;;;;;;;13.47;9.87;;;0.90;99.90;;;;;;5093242;28;20192;-60
2024/01/04 08:39:32;;;;;;;15.30;10.77;;;0.70;99.90;;;;;;5111512;28;20225;-61
2024/01/04 08:42:04;;;;;;;17.30;9.70;;;0.70;99.90;;;;;;5111648;28;20200;-61
2024/01/04 08:44:32;;;;;;;16.73;10.47;;;0.60;99.90;;;;;;5111630;28;20216;-61
2024/01/04 08:47:00;;;;;;;12.43;9.00;;;0.70;99.90;;;;;;5111002;28;20204;-61
2024/01/04 08:49:29;;;;;;;15.20;10.17;;;0.50;99.90;;;;;;5111388;28;20192;-61
2024/01/04 08:51:57;;;;;;;11.13;8.87;;;0.30;99.90;;;;;;5111326;28;20215;-60
2024/01/04 08:54:27;;;;;;;15.03;10.37;;;0.30;99.90;;;;;;5111525;28;20552;-62
2024/01/04 08:56:56;;;;;;;14.97;10.67;;;0.20;99.90;;;;;;5111526;28;20206;-60
2024/01/04 08:59:25;;;;;;;12.97;8.87;;;0.10;99.90;;;;;;5111042;28;20196;-61
2024/01/04 09:01:53;;;;;;;14.30;9.40;;;0.10;99.90;;;;;;5110976;28;20193;-61
2024/01/04 09:04:22;;;;;;;13.63;9.63;;;0.20;99.90;;;;;;5111177;28;20571;-59
2024/01/04 09:06:50;;;;;;;13.37;9.70;;;0.20;99.90;;;;;;5110857;28;20192;-60
2024/01/04 09:09:18;;;;;;;12.97;10.23;;;0.40;99.90;;;;;;5111310;28;20243;-58
2024/01/04 09:11:48;;;;;;;18.33;13.20;;;0.30;99.90;;;;;;5111234;28;20192;-59
2024/01/04 09:14:17;;;;;;;13.67;9.63;;;0.30;99.90;;;;;;5110628;28;20197;-60
2024/01/04 09:16:48;;;;;;;13.20;10.23;;;0.30;99.90;;;;;;5111139;28;20207;-60
2024/01/04 09:19:17;;;;;;;15.17;11.13;;;0.40;99.90;;;;;;5111084;28;20197;-59
2024/01/04 09:21:49;;;;;;;15.97;11.27;;;0.50;99.90;;;;;;5110467;28;20192;-59
2024/01/04 09:24:20;;;;;;;15.80;11.00;;;0.50;99.90;;;;;;5110121;28;20628;-63
2024/01/04 09:26:48;;;;;;;17.37;11.70;;;0.40;99.90;;;;;;5111056;28;20191;-62
2024/01/04 09:29:18;;;;;;;17.63;12.37;;;0.50;99.90;;;;;;5110220;28;20241;-62
2024/01/04 09:31:48;;;;;;;17.30;11.27;;;0.60;99.90;;;;;;5110052;28;20220;-63
2024/01/04 09:34:16;;;;;;;15.80;10.83;;;0.60;99.90;;;;;;5110417;28;20192;-63
2024/01/04 09:36:45;;;;;;;13.67;10.03;;;0.30;99.90;;;;;;5109884;28;20226;-64
2024/01/04 09:39:17;;;;;;;19.97;12.63;;;0.10;99.90;;;;;;5109480;28;20233;-62
2024/01/04 09:41:49;;;;;;;12.33;9.60;;;0.40;99.90;;;;;;5109795;28;20200;-63
2024/01/04 09:44:17;;;;;;;14.97;9.93;;;0.20;99.90;;;;;;5110106;28;20554;-63
2024/01/04 09:46:50;;;;;;;16.73;10.10;;;0.20;99.90;;;;;;5109858;28;20282;-63
2024/01/04 09:49:18;;;;;;;14.33;9.90;;;0.30;99.90;;;;;;5109867;28;20192;-62
2024/01/04 09:51:50;;;;;;;17.20;11.67;;;0.30;99.90;;;;;;5109520;28;20202;-63
2024/01/04 09:54:21;;;;;;;14.73;11.20;;;0.20;99.90;;;;;;5109508;28;20198;-63
2024/01/04 09:56:50;;;;;;;18.47;12.17;;;0.20;99.90;;;;;;5109897;28;20563;-61
2024/01/04 09:59:19;;;;;;;19.20;12.47;;;0.30;99.90;;;;;;5109594;28;20193;-63
2024/01/04 10:01:49;;;;;;;26.07;17.43;;;0.40;99.90;;;;;;5109516;28;20207;-63
2024/01/04 10:04:18;;;;;;;26.43;17.90;;;0.40;99.90;;;;;;5109642;28;20197;-64
2024/01/04 10:06:46;;;;;;;25.40;13.43;;;0.50;99.90;;;;;;5109385;28;20343;-63
2024/01/04 10:09:20;;;;;;;20.50;13.27;;;0.60;99.90;;;;;;5109311;28;20193;-63
2024/01/04 10:12:08;;;;;;;16.30;10.80;;;0.50;99.90;;;;;;5109163;28;20208;-59
2024/01/04 10:14:37;;;;;;;22.33;13.00;;;0.40;99.90;;;;;;5109706;28;20200;-61
2024/01/04 10:17:09;;;;;;;23.60;14.27;;;0.20;99.90;;;;;;5109735;28;20229;-62
2024/01/04 10:19:38;;;;;;;15.77;10.43;;;0.20;99.90;;;;;;5108897;28;20195;-62
2024/01/04 10:22:08;;;;;;;17.17;11.93;;;0.30;99.90;;;;;;5109266;28;20208;-60
2024/01/04 10:24:38;;;;;;;49.47;28.77;;;0.30;99.90;;;;;;5108641;28;20188;-59
2024/01/04 10:27:08;;;;;;;61.10;39.70;;;0.30;99.90;;;;;;5108977;28;20221;-59
2024/01/04 10:29:39;;;;;;;27.77;24.17;;;0.40;99.90;;;;;;5109115;28;20193;-61
2024/01/04 10:32:13;;;;;;;16.37;11.10;;;0.60;99.90;;;;;;5109307;28;20201;-61
2024/01/04 10:34:41;;;;;;;18.87;12.43;;;0.40;99.90;;;;;;5108592;28;20205;-62
2024/01/04 10:37:12;;;;;;;15.53;11.27;;;0.50;99.90;;;;;;5109923;28;20192;-60
2024/01/04 10:39:43;;;;;;;24.77;12.67;;;0.50;99.90;;;;;;5109249;28;20235;-60
2024/01/04 10:42:15;;;;;;;18.37;12.43;;;0.70;99.90;;;;;;5108247;28;20193;-62
2024/01/04 10:44:45;;;;;;;21.57;13.63;;;0.80;99.90;;;;;;5107542;28;20826;-61
2024/01/04 10:47:15;;;;;;;17.30;11.43;;;0.80;99.90;;;;;;5108548;28;20231;-62
2024/01/04 10:49:47;;;;;;;20.07;12.50;;;0.90;99.90;;;;;;5090723;28;20212;-62
2024/01/04 10:52:20;;;;;;;19.23;11.70;;;0.80;99.90;;;;;;5109073;28;20199;-63
2024/01/04 10:54:53;;;;;;;14.43;10.70;;;0.80;99.90;;;;;;5108905;28;20189;-62
2024/01/04 10:57:22;;;;;;;14.20;9.83;;;0.90;99.90;;;;;;5109156;28;20197;-61
2024/01/04 10:59:52;;;;;;;15.43;9.33;;;0.80;99.90;;;;;;5108706;28;20197;-62
2024/01/04 11:02:23;;;;;;;16.57;10.33;;;0.80;99.90;;;;;;5109088;28;20203;-65
2024/01/04 11:04:54;;;;;;;42.90;26.20;;;0.80;99.90;;;;;;5108841;28;20201;-62
2024/01/04 11:07:23;;;;;;;23.43;18.13;;;0.60;99.90;;;;;;5108936;28;20277;-62
2024/01/04 11:09:52;;;;;;;14.90;13.23;;;0.60;99.90;;;;;;5108751;28;20202;-62
2024/01/04 11:12:20;;;;;;;15.90;11.93;;;0.70;99.90;;;;;;5109077;28;20200;-63
2024/01/04 11:14:49;;;;;;;15.20;10.37;;;0.90;99.90;;;;;;5108981;28;20201;-62
2024/01/04 11:17:41;;;;;;;13.33;10.47;;;0.90;99.90;;;;;;5108839;28;20297;-62
2024/01/04 11:20:21;;;;;;;14.13;10.13;;;0.80;99.90;;;;;;5108039;28;20193;-62
2024/01/04 11:23:15;;;;;;;12.90;9.20;;;0.90;99.90;;;;;;5109000;28;20201;-62
2024/01/04 11:26:03;;;;;;;13.17;9.47;;;0.80;99.90;;;;;;5108853;28;20200;-62
2024/01/04 11:28:32;;;;;;;10.70;8.67;;;0.60;99.90;;;;;;5108893;28;20201;-62
2024/01/04 11:31:05;;;;;;;14.57;8.83;;;0.70;99.90;;;;;;5108749;28;20189;-62
2024/01/04 11:33:42;;;;;;;14.07;8.97;;;0.70;99.90;;;;;;5107203;28;20308;-60
2024/01/04 11:36:18;;;;;;;13.07;9.10;;;0.70;99.90;;;;;;5107415;28;20199;-61
2024/01/04 11:38:48;;;;;;;11.27;8.03;;;0.70;99.90;;;;;;5108399;28;20631;-62
2024/01/04 11:41:17;;;;;;;16.63;10.37;;;0.70;99.90;;;;;;5108783;28;20741;-61
2024/01/04 11:43:47;;;;;;;14.90;9.17;;;0.70;99.90;;;;;;5108696;28;20197;-62
2024/01/04 11:46:19;;;;;;;14.93;9.97;;;0.70;99.90;;;;;;5108530;28;20302;-63
2024/01/04 11:48:55;;;;;;;14.63;9.23;;;0.70;99.90;;;;;;5112220;28;20269;-62
2024/01/04 11:51:35;;;;;;;15.67;9.73;;;0.80;99.90;;;;;;5112197;28;20203;-61
2024/01/04 11:54:06;;;;;;;14.10;9.80;;;0.90;99.90;;;;;;5112075;28;20203;-64
2024/01/04 11:56:35;;;;;;;15.23;9.57;;;1.00;99.90;;;;;;5112117;28;20303;-63
2024/01/04 11:59:08;;;;;;;16.80;10.03;;;0.90;99.90;;;;;;5112205;28;20201;-63
2024/01/04 12:01:38;;;;;;;15.07;9.40;;;1.10;99.90;;;;;;5111898;28;20192;-64
2024/01/04 12:04:12;;;;;;;13.43;8.40;;;0.80;99.90;;;;;;5111991;28;20203;-63
2024/01/04 12:06:42;;;;;;;10.63;8.33;;;0.50;99.90;;;;;;5111616;28;20285;-62
2024/01/04 12:09:15;;;;;;;12.90;8.47;;;0.60;99.90;;;;;;5112069;28;20200;-61
2024/01/04 12:11:53;;;;;;;18.53;10.40;;;0.60;99.90;;;;;;5112257;28;20234;-61
2024/01/04 12:14:23;;;;;;;12.23;9.00;;;0.80;99.90;;;;;;5111174;28;20191;-62
2024/01/04 12:16:51;;;;;;;12.13;8.37;;;0.90;99.90;;;;;;5111999;28;20228;-62
2024/01/04 12:19:21;;;;;;;14.67;10.17;;;0.70;99.90;;;;;;5112042;28;20200;-62
2024/01/04 12:21:50;;;;;;;11.50;9.13;;;0.80;99.90;;;;;;5112371;28;20196;-60
2024/01/04 12:24:18;;;;;;;9.40;7.57;;;0.70;99.90;;;;;;5111337;28;20226;-61
2024/01/04 12:26:47;;;;;;;11.70;7.70;;;0.50;99.90;;;;;;5111346;28;20265;-62
2024/01/04 12:29:16;;;;;;;12.20;8.30;;;0.40;99.90;;;;;;5111319;28;20207;-62
2024/01/04 12:31:45;;;;;;;11.33;8.33;;;0.40;99.90;;;;;;5111348;28;20192;-61
2024/01/04 12:34:13;;;;;;;9.90;7.73;;;0.50;99.90;;;;;;5111250;28;20183;-62
2024/01/04 12:36:43;;;;;;;16.87;12.37;;;0.50;99.90;;;;;;5111245;28;20189;-64
2024/01/04 12:39:12;;;;;;;14.23;10.37;;;0.50;99.90;;;;;;5110977;28;20229;-64
2024/01/04 12:41:44;;;;;;;14.97;10.47;;;0.50;99.90;;;;;;5111128;28;20204;-63
2024/01/04 12:44:14;;;;;;;10.57;7.87;;;0.70;99.90;;;;;;5111003;28;20197;-61
2024/01/04 12:46:43;;;;;;;12.87;9.47;;;0.70;99.90;;;;;;5110869;28;20224;-61
2024/01/04 12:49:12;;;;;;;13.20;9.07;;;0.70;99.90;;;;;;5111016;28;20676;-64
2024/01/04 12:51:44;;;;;;;11.63;8.90;;;0.50;99.90;;;;;;5110648;28;20657;-64
2024/01/04 12:54:13;;;;;;;12.47;9.07;;;0.50;99.90;;;;;;5110753;28;20250;-62